• Join FlightAware (Why Join?)
  • Login
  • US Flag 
12:49PM EDT


 

Airport Tracker/Info


-or-


 

Live Flight TrackerFlight Track Log ✈ DAL6035 ✈ 10-Apr-2013 ✈ KMHT - KLGA

Flight Track Log - Related Links

Times and Time Zones

All times are in EDT time to prevent confusion due to time zone crossing. See the DAL6035 flight status page for this flight to view local times or setup timezone preferences in your user account.

Time Position Orientation Groundspeed Altitude Reporting Facility
EDT Latitude Longitude Course Direction KTS MPH feet Rate Location/Type
01:03PM 42.9708 -71.4072 29° Northeast 183 211 1,900  Level Boston Center
01:04PM 43.0186 -71.3867 17° North 230 265 3,900 2,160 Climbing Boston Center
01:06PM 43.0631 -71.4569 311° West 208 239 6,400 2,580 Climbing Boston Center
01:06PM 43.0992 -71.5217 307° West 223 257 9,100 2,520 Climbing Boston Center
01:07PM 43.1164 -71.6067 286° West 217 250 11,500 1,680 Climbing Boston Center
01:09PM 43.0647 -71.6728 223° Southwest 208 239 12,600 1,320 Climbing Boston Center
01:10PM 43.0069 -71.7700 231° Southwest 283 326 14,200 1,680 Climbing Boston Center
01:11PM 42.9511 -71.8586 229° Southwest 313 360 16,000 1,440 Climbing Boston Center
01:11PM 42.8933 -71.9469 228° Southwest 313 360 17,100 960 Climbing Boston Center
01:12PM 42.8333 -72.0436 230° Southwest 332 382 17,900 420 Climbing Boston Center
01:13PM 42.7689 -72.1431 229° Southwest 339 390 18,000  Climbing Boston Center
01:14PM 42.7044 -72.2453 229° Southwest 350 403 18,000  Level Boston Center
01:16PM 42.6464 -72.3386 230° Southwest 356 410 18,000  Level Boston Center
01:17PM 42.5817 -72.4400 229° Southwest 356 410 18,000  Level Boston Center
01:18PM 42.5086 -72.5500 228° Southwest 356 410 18,000  Level Boston Center
01:18PM 42.4419 -72.6511 228° Southwest 361 415 18,000 -360 Level Boston Center
01:20PM 42.3769 -72.7519 229° Southwest 362 417 17,300 -540 Descending Boston Center
01:20PM 42.3183 -72.8417 229° Southwest 356 410 17,000 -180 Descending Boston Center
01:21PM 42.2514 -72.9478 230° Southwest 351 404 17,000 -540 Level Boston Center
01:22PM 42.1883 -73.0258 223° Southwest 351 404 16,000 -1,260 Descending Boston Center
01:24PM 42.1108 -73.1200 222° Southwest 351 404 14,500 -1,020 Descending Boston Center
01:24PM 42.0478 -73.1894 219° Southwest 334 384 14,000 -300 Descending Boston Center
01:25PM 41.9722 -73.2750 220° Southwest 326 375 14,000  Level Boston Center
01:26PM 41.9047 -73.3550 221° Southwest 326 375 14,000  Level Boston Center
01:28PM 41.8564 -73.4072 219° Southwest 333 383 14,000 -840 Level Boston Center
01:28PM 41.7536 -73.4947 212° Southwest 338 389 12,400 -1,560 Descending Boston Center
01:29PM 41.6842 -73.5464 209° Southwest 338 389 11,000 -1,080 Descending Boston Center
01:32PM 41.5333 -73.6500 207° Southwest 267 307 9,200 -660 Descending New York TRACON
01:33PM 41.4667 -73.7000 209° Southwest 262 302 9,000 -120 Descending New York TRACON
01:33PM 41.4167 -73.7500 217° Southwest 259 298 9,000  Level New York TRACON
01:35PM 41.3500 -73.7833 201° Southwest 276 318 9,000  Level New York TRACON
01:35PM 41.2667 -73.7333 156° South 320 368 9,000 -900 Level New York TRACON
01:37PM 41.1974 -73.6692 147° Southeast  Level FlightAware Approximate
01:37PM 41.1333 -73.6167 147° Southeast 289 333 6,400  Level New York TRACON
01:39PM 41.0667 -73.6333 191° South 252 290 4,800 -1,200 Descending New York TRACON
01:40PM 41.0167 -73.6833 217° Southwest 233 268 4,000 -420 Descending New York TRACON
01:41PM 40.9833 -73.7500 236° Southwest 209 241 4,000  Level New York TRACON
01:42PM 40.9500 -73.8333 242° Southwest 235 270 4,000  Level New York TRACON
01:43PM 40.9167 -73.9167 242° Southwest 237 273 4,000  Level New York TRACON
01:43PM 40.8667 -73.9333 194° South 248 285 4,000  Level New York TRACON
01:44PM 40.8000 -73.9667 201° Southwest 249 287 4,000  Level New York TRACON
01:45PM 40.7500 -74.0167 217° Southwest 216 249 4,000 -480 Level New York TRACON
01:46PM 40.7000 -74.0000 166° South 203 234 3,100 -960 Descending New York TRACON
01:47PM 40.7000 -73.9333 90° East 196 226 2,100 -1,140 Descending New York TRACON
01:48PM 40.7333 -73.9167 21° North 146 168 900 -1,200 Descending New York TRACON